createdAt,value
2019-04-20T00:00:59.461Z,11.90
2019-04-20T00:03:34.347Z,11.80
2019-04-20T00:05:57.330Z,11.80
2019-04-20T00:08:29.634Z,11.90
2019-04-20T00:11:04.119Z,11.80
2019-04-20T00:13:37.878Z,11.70
2019-04-20T00:15:57.728Z,11.60
2019-04-20T00:18:35.530Z,11.40
2019-04-20T00:21:03.849Z,11.30
2019-04-20T00:23:42.054Z,11.30
2019-04-20T00:26:26.577Z,11.10
2019-04-20T00:29:07.482Z,11.00
2019-04-20T00:31:29.747Z,10.90
2019-04-20T00:33:56.198Z,10.90
2019-04-20T00:36:18.032Z,10.90
2019-04-20T00:38:53.031Z,11.00
2019-04-20T00:41:18.658Z,10.90
2019-04-20T00:43:47.181Z,10.90
2019-04-20T00:46:21.867Z,10.80
2019-04-20T00:48:54.010Z,10.80
2019-04-20T00:51:33.952Z,10.70
2019-04-20T00:53:48.949Z,10.70
2019-04-20T00:56:16.336Z,10.70
2019-04-20T00:58:58.127Z,10.60
2019-04-20T01:01:36.212Z,10.70
2019-04-20T01:04:07.128Z,10.60
2019-04-20T01:06:42.531Z,10.70
2019-04-20T01:08:57.667Z,10.50
2019-04-20T01:11:31.786Z,10.40
2019-04-20T01:14:03.904Z,10.40
2019-04-20T01:16:36.632Z,10.40
2019-04-20T01:18:56.938Z,10.40
2019-04-20T01:21:28.295Z,10.40
2019-04-20T01:24:00.004Z,10.30
2019-04-20T01:26:27.386Z,10.20
2019-04-20T01:29:08.940Z,10.10
2019-04-20T01:31:35.517Z,9.90
2019-04-20T01:34:06.171Z,10.00
2019-04-20T01:36:45.713Z,9.90
2019-04-20T01:39:07.807Z,9.90
2019-04-20T01:41:26.940Z,9.90
2019-04-20T01:43:56.318Z,10.10
2019-04-20T01:46:27.194Z,9.90
2019-04-20T01:48:55.036Z,9.70
2019-04-20T01:51:30.461Z,9.80
2019-04-20T01:54:14.705Z,9.70
2019-04-20T01:56:40.406Z,9.60
2019-04-20T01:59:24.007Z,9.70
2019-04-20T02:01:55.663Z,9.80
2019-04-20T02:04:40.651Z,9.80
2019-04-20T02:07:06.922Z,9.90
2019-04-20T02:09:43.307Z,9.90
2019-04-20T02:12:13.093Z,10.00
2019-04-20T02:14:43.668Z,10.10
2019-04-20T02:17:18.041Z,10.10
2019-04-20T02:19:57.396Z,10.10
2019-04-20T02:22:15.706Z,10.20
2019-04-20T02:24:37.479Z,10.10
2019-04-20T02:27:06.530Z,10.20
2019-04-20T02:29:58.214Z,10.20
2019-04-20T02:32:30.455Z,10.20
2019-04-20T02:35:07.197Z,10.30
2019-04-20T02:37:51.375Z,10.30
2019-04-20T02:40:22.840Z,10.20
2019-04-20T02:42:59.948Z,10.20
2019-04-20T02:45:18.688Z,10.30
2019-04-20T02:50:15.410Z,10.20
2019-04-20T02:57:49.321Z,10.10
2019-04-20T03:00:12.259Z,10.10
2019-04-20T03:02:27.652Z,10.20
2019-04-20T03:04:48.234Z,10.20
2019-04-20T03:07:28.436Z,10.10
2019-04-20T03:10:02.559Z,10.20
2019-04-20T03:14:58.391Z,10.10
2019-04-20T03:17:37.148Z,10.00
2019-04-20T03:19:55.566Z,10.10
2019-04-20T03:22:59.930Z,10.00
2019-04-20T03:25:06.281Z,9.90
2019-04-20T03:27:33.160Z,9.80
2019-04-20T03:31:06.874Z,9.80
2019-04-20T03:33:14.594Z,9.90
2019-04-20T03:35:28.303Z,9.80
2019-04-20T03:38:02.825Z,9.70
2019-04-20T03:40:21.585Z,9.70
2019-04-20T03:42:37.684Z,9.70
2019-04-20T03:45:12.221Z,9.60
2019-04-20T03:47:49.725Z,9.70
2019-04-20T03:50:30.781Z,9.70
2019-04-20T03:53:05.713Z,9.80
2019-04-20T03:55:30.278Z,9.60
2019-04-20T03:58:08.805Z,9.60
2019-04-20T04:00:37.594Z,9.60
2019-04-20T04:03:21.377Z,9.70
2019-04-20T04:05:42.290Z,9.60
2019-04-20T04:08:06.850Z,9.50
2019-04-20T04:10:44.294Z,9.50
2019-04-20T04:13:16.857Z,9.50
2019-04-20T04:15:52.245Z,9.50
2019-04-20T04:18:26.002Z,9.60
2019-04-20T04:20:55.287Z,9.50
2019-04-20T04:23:38.065Z,9.50
2019-04-20T04:26:12.363Z,9.50
2019-04-20T04:28:37.255Z,9.60
2019-04-20T04:31:24.617Z,9.60
2019-04-20T04:33:52.206Z,9.70
2019-04-20T04:36:07.098Z,9.60
2019-04-20T04:38:41.923Z,9.60
2019-04-20T04:41:16.717Z,9.60
2019-04-20T04:43:42.529Z,9.70
2019-04-20T04:45:51.371Z,9.70
2019-04-20T04:48:27.566Z,9.60
2019-04-20T04:50:57.435Z,9.60
2019-04-20T04:53:30.320Z,9.70
2019-04-20T04:55:56.511Z,9.90
2019-04-20T04:58:21.608Z,9.80
2019-04-20T05:00:51.360Z,9.80
2019-04-20T05:03:41.308Z,9.60
2019-04-20T05:06:14.854Z,9.70
2019-04-20T05:08:31.691Z,9.80
2019-04-20T05:10:54.305Z,9.90
2019-04-20T05:13:26.820Z,9.80
2019-04-20T05:16:11.057Z,9.70
2019-04-20T05:18:45.031Z,9.50
2019-04-20T05:21:17.384Z,9.50
2019-04-20T05:23:37.548Z,9.60
2019-04-20T05:26:19.973Z,9.70
2019-04-20T05:28:45.824Z,9.80
2019-04-20T05:31:08.471Z,9.80
2019-04-20T05:34:05.569Z,9.90
2019-04-20T05:36:23.262Z,9.90
2019-04-20T05:39:02.270Z,10.10
2019-04-20T05:41:24.043Z,10.20
2019-04-20T05:43:59.817Z,10.30
2019-04-20T05:46:32.049Z,10.40
2019-04-20T05:49:10.051Z,10.50
2019-04-20T05:51:42.438Z,10.50
2019-04-20T05:54:10.787Z,10.50
2019-04-20T05:56:40.235Z,10.50
2019-04-20T05:59:06.984Z,10.60
2019-04-20T06:01:37.917Z,10.70
2019-04-20T06:04:01.571Z,10.70
2019-04-20T06:06:43.343Z,10.90
2019-04-20T06:09:11.090Z,11.00
2019-04-20T06:11:44.728Z,11.10
2019-04-20T06:14:00.197Z,11.30
2019-04-20T06:16:46.838Z,11.40
2019-04-20T06:19:19.961Z,11.50
2019-04-20T06:22:05.199Z,11.70
2019-04-20T06:24:40.885Z,11.80
2019-04-20T06:27:04.955Z,11.90
2019-04-20T06:29:33.556Z,12.10
2019-04-20T06:32:05.076Z,12.20
2019-04-20T06:37:02.370Z,12.60
2019-04-20T06:42:14.004Z,13.00
2019-04-20T06:52:15.398Z,13.50
2019-04-20T06:54:47.088Z,13.90
2019-04-20T06:57:10.037Z,13.90
2019-04-20T06:59:43.457Z,14.20
2019-04-20T07:04:48.577Z,14.60
2019-04-20T07:07:14.646Z,14.90
2019-04-20T07:09:52.888Z,14.90
2019-04-20T07:12:11.436Z,15.20
2019-04-20T07:14:36.673Z,15.90
2019-04-20T07:20:03.013Z,21.80
2019-04-20T07:22:55.931Z,23.00
2019-04-20T07:25:05.347Z,24.10
2019-04-20T07:27:36.901Z,24.60
2019-04-20T07:30:09.491Z,25.10
2019-04-20T07:32:44.270Z,26.90
2019-04-20T07:35:08.397Z,27.80
2019-04-20T07:38:13.807Z,27.80
2019-04-20T07:40:17.317Z,26.60
2019-04-20T07:42:49.149Z,27.20
2019-04-20T07:45:19.936Z,27.80
2019-04-20T07:47:45.979Z,29.50
2019-04-20T07:50:12.056Z,30.40
2019-04-20T07:52:33.827Z,31.60
2019-04-20T07:55:33.330Z,32.20
2019-04-20T07:57:37.759Z,30.60
2019-04-20T08:00:17.518Z,31.40
2019-04-20T08:03:03.560Z,29.80
2019-04-20T08:05:28.167Z,30.80
2019-04-20T08:07:53.942Z,32.60
2019-04-20T08:10:32.545Z,31.50
2019-04-20T08:13:09.423Z,31.60
2019-04-20T08:15:42.946Z,31.40
2019-04-20T08:18:02.988Z,31.10
2019-04-20T08:20:33.077Z,32.50
2019-04-20T08:23:11.280Z,32.30
2019-04-20T08:25:27.804Z,33.50
2019-04-20T08:28:06.420Z,32.80
2019-04-20T08:30:55.760Z,31.00
2019-04-20T08:33:24.561Z,33.40
2019-04-20T08:36:04.407Z,34.70
2019-04-20T08:39:00.023Z,35.30
2019-04-20T08:40:59.616Z,35.50
2019-04-20T08:43:42.321Z,32.60
2019-04-20T08:45:58.784Z,34.10
2019-04-20T08:48:34.823Z,35.90
2019-04-20T08:51:02.322Z,37.50
2019-04-20T08:53:33.523Z,36.70
2019-04-20T08:55:54.292Z,33.00
2019-04-20T08:58:11.379Z,32.70
2019-04-20T09:00:48.588Z,34.90
2019-04-20T09:03:17.950Z,35.30
2019-04-20T09:05:52.565Z,36.20
2019-04-20T09:08:17.924Z,35.70
2019-04-20T09:11:01.488Z,36.40
2019-04-20T09:13:21.126Z,36.00
2019-04-20T09:15:42.574Z,35.00
2019-04-20T09:18:21.446Z,34.90
2019-04-20T09:20:52.937Z,35.00
2019-04-20T09:23:31.577Z,35.50
2019-04-20T09:26:04.743Z,37.20
2019-04-20T09:28:32.242Z,38.10
2019-04-20T09:31:20.101Z,37.80
2019-04-20T09:33:58.747Z,36.50
2019-04-20T09:36:27.502Z,36.80
2019-04-20T09:39:09.976Z,37.90
2019-04-20T09:41:59.958Z,36.30
2019-04-20T09:44:15.632Z,34.30
2019-04-20T09:46:50.080Z,34.40
2019-04-20T09:49:24.857Z,32.30
2019-04-20T09:52:03.939Z,30.30
2019-04-20T09:54:34.387Z,29.00
2019-04-20T09:57:07.535Z,27.00
2019-04-20T09:59:33.286Z,25.90
2019-04-20T10:01:50.038Z,25.30
2019-04-20T10:04:15.299Z,25.50
2019-04-20T10:06:43.803Z,25.40
2019-04-20T10:09:13.558Z,25.20
2019-04-20T10:11:44.222Z,24.70
2019-04-20T10:14:12.444Z,24.90
2019-04-20T10:16:41.999Z,24.50
2019-04-20T10:19:11.917Z,24.80
2019-04-20T10:21:41.580Z,24.80
2019-04-20T10:24:10.632Z,25.20
2019-04-20T10:26:39.084Z,25.10
2019-04-20T10:29:07.941Z,25.30
2019-04-20T10:31:42.658Z,24.90
2019-04-20T10:34:07.420Z,24.80
2019-04-20T10:36:47.798Z,25.40
2019-04-20T10:39:18.463Z,25.60
2019-04-20T10:41:53.792Z,25.60
2019-04-20T10:44:17.190Z,26.00
2019-04-20T10:46:46.942Z,25.80
2019-04-20T10:49:15.511Z,25.50
2019-04-20T10:51:44.022Z,26.00
2019-04-20T10:54:12.420Z,25.60
2019-04-20T10:56:41.461Z,26.20
2019-04-20T10:59:09.907Z,26.10
2019-04-20T11:01:38.299Z,26.00
2019-04-20T11:04:06.758Z,26.70
2019-04-20T11:06:36.448Z,27.10
2019-04-20T11:09:06.963Z,27.30
2019-04-20T11:11:37.022Z,27.30
2019-04-20T11:14:12.559Z,28.30
2019-04-20T11:16:36.119Z,27.60
2019-04-20T11:19:05.259Z,28.00
2019-04-20T11:21:34.493Z,28.10
2019-04-20T11:24:02.912Z,27.80
2019-04-20T11:26:32.182Z,27.80
2019-04-20T11:29:02.125Z,28.10
2019-04-20T11:31:37.408Z,28.50
2019-04-20T11:34:00.655Z,28.50
2019-04-20T11:36:29.110Z,28.10
2019-04-20T11:38:58.701Z,28.00
2019-04-20T11:41:29.478Z,28.20
2019-04-20T11:43:57.832Z,28.40
2019-04-20T11:46:26.952Z,29.10
2019-04-20T11:48:55.514Z,29.40
2019-04-20T11:51:23.903Z,29.30
2019-04-20T11:53:52.375Z,29.00
2019-04-20T11:56:26.112Z,29.10
2019-04-20T11:58:51.079Z,29.00
2019-04-20T12:01:23.691Z,28.80
2019-04-20T12:04:01.240Z,28.70
2019-04-20T12:06:21.384Z,27.90
2019-04-20T12:08:50.165Z,28.90
2019-04-20T12:11:26.535Z,29.00
2019-04-20T12:13:49.016Z,29.30
2019-04-20T12:16:17.412Z,29.60
2019-04-20T12:18:46.428Z,30.30
2019-04-20T12:21:14.872Z,30.30
2019-04-20T12:23:44.539Z,29.40
2019-04-20T12:26:13.121Z,30.00
2019-04-20T12:28:41.495Z,30.00
2019-04-20T12:31:14.792Z,29.70
2019-04-20T12:33:40.205Z,29.60
2019-04-20T12:36:10.306Z,29.70
2019-04-20T12:38:39.139Z,29.80
2019-04-20T12:41:09.545Z,30.00
2019-04-20T12:43:38.138Z,30.30
2019-04-20T12:46:07.692Z,29.70
2019-04-20T12:48:36.129Z,29.30
2019-04-20T12:51:33.189Z,29.70
2019-04-20T12:53:54.051Z,29.20
2019-04-20T12:56:22.474Z,29.00
2019-04-20T12:58:51.648Z,28.90
2019-04-20T13:01:21.956Z,28.60
2019-04-20T13:03:50.292Z,28.50
2019-04-20T13:06:19.571Z,29.00
2019-04-20T13:08:53.445Z,29.60
2019-04-20T13:11:24.624Z,29.40
2019-04-20T13:14:00.405Z,29.20
2019-04-20T13:16:30.505Z,29.30
2019-04-20T13:19:03.545Z,29.70
2019-04-20T13:21:32.416Z,29.50
2019-04-20T13:24:01.115Z,29.40
2019-04-20T13:26:30.903Z,29.50
2019-04-20T13:28:59.363Z,29.50
2019-04-20T13:31:27.803Z,29.20
2019-04-20T13:33:57.151Z,29.20
2019-04-20T13:36:26.157Z,29.20
2019-04-20T13:38:54.630Z,29.20
2019-04-20T13:41:24.133Z,29.30
2019-04-20T13:43:55.735Z,29.50
2019-04-20T13:46:22.949Z,29.00
2019-04-20T13:48:51.515Z,29.20
2019-04-20T13:51:20.739Z,29.30
2019-04-20T13:53:50.773Z,29.50
2019-04-20T13:56:21.632Z,29.30
2019-04-20T13:58:58.142Z,29.50
2019-04-20T14:01:30.918Z,29.30
2019-04-20T14:04:05.250Z,28.80
2019-04-20T14:06:35.294Z,29.10
2019-04-20T14:09:05.965Z,29.10
2019-04-20T14:11:35.629Z,29.30
2019-04-20T14:14:07.788Z,29.00
2019-04-20T14:16:34.987Z,28.90
2019-04-20T14:19:05.085Z,28.50
2019-04-20T14:21:34.316Z,28.40
2019-04-20T14:24:04.134Z,28.50
2019-04-20T14:26:34.514Z,28.20
2019-04-20T14:29:03.317Z,28.30
2019-04-20T14:31:32.186Z,28.30
2019-04-20T14:34:00.649Z,28.50
2019-04-20T14:36:29.041Z,28.20
2019-04-20T14:38:58.303Z,28.40
2019-04-20T14:41:26.702Z,27.90
2019-04-20T14:43:55.345Z,27.80
2019-04-20T14:46:26.281Z,28.10
2019-04-20T14:48:54.633Z,28.40
2019-04-20T14:51:23.793Z,28.30
2019-04-20T14:53:53.786Z,28.30
2019-04-20T14:56:23.419Z,28.20
2019-04-20T14:58:57.633Z,28.10
2019-04-20T15:01:34.699Z,28.20
2019-04-20T15:04:09.509Z,28.00
2019-04-20T15:06:36.708Z,27.70
2019-04-20T15:09:06.529Z,27.80
2019-04-20T15:11:37.671Z,27.40
2019-04-20T15:14:06.748Z,27.30
2019-04-20T15:16:35.196Z,27.30
2019-04-20T15:19:05.430Z,27.30
2019-04-20T15:21:35.668Z,27.10
2019-04-20T15:24:05.788Z,26.90
2019-04-20T15:26:34.360Z,27.20
2019-04-20T15:29:04.270Z,27.40
2019-04-20T15:31:34.205Z,27.30
2019-04-20T15:34:04.458Z,27.20
2019-04-20T15:36:34.061Z,27.20
2019-04-20T15:39:03.090Z,27.10
2019-04-20T15:41:31.795Z,27.10
2019-04-20T15:44:01.583Z,27.10
2019-04-20T15:46:32.712Z,27.10
2019-04-20T15:49:00.270Z,26.70
2019-04-20T15:51:29.918Z,26.80
2019-04-20T15:53:59.697Z,26.70
2019-04-20T15:56:29.123Z,26.60
2019-04-20T15:58:58.724Z,26.60
2019-04-20T16:01:30.152Z,26.80
2019-04-20T16:04:06.078Z,26.60
2019-04-20T16:06:34.965Z,26.70
2019-04-20T16:09:06.174Z,26.30
2019-04-20T16:11:35.087Z,26.00
2019-04-20T16:14:05.053Z,25.70
2019-04-20T16:16:34.027Z,25.80
2019-04-20T16:19:06.189Z,25.70
2019-04-20T16:21:35.747Z,25.80
2019-04-20T16:24:04.534Z,25.80
2019-04-20T16:26:35.715Z,25.90
2019-04-20T16:29:05.959Z,25.90
2019-04-20T16:31:34.488Z,25.40
2019-04-20T16:34:03.351Z,25.00
2019-04-20T16:36:32.476Z,25.10
2019-04-20T16:39:01.577Z,25.20
2019-04-20T16:41:30.640Z,25.00
2019-04-20T16:43:59.525Z,25.00
2019-04-20T16:46:28.147Z,25.00
2019-04-20T16:48:57.018Z,25.00
2019-04-20T16:51:25.484Z,24.80
2019-04-20T16:53:54.241Z,24.80
2019-04-20T16:56:22.709Z,24.70
2019-04-20T16:58:54.769Z,24.50
2019-04-20T17:03:54.636Z,24.60
2019-04-20T17:06:18.036Z,24.30
2019-04-20T17:08:47.786Z,24.20
2019-04-20T17:11:18.028Z,24.10
2019-04-20T17:13:50.027Z,24.00
2019-04-20T17:16:17.536Z,23.80
2019-04-20T17:18:49.915Z,23.50
2019-04-20T17:21:22.948Z,23.40
2019-04-20T17:23:49.155Z,23.30
2019-04-20T17:26:20.845Z,23.10
2019-04-20T17:29:08.270Z,22.90
2019-04-20T17:31:47.671Z,22.80
2019-04-20T17:34:39.028Z,22.80
2019-04-20T17:36:46.683Z,22.60
2019-04-20T17:39:25.838Z,22.40
2019-04-20T17:42:03.131Z,22.50
2019-04-20T17:44:34.392Z,22.30
2019-04-20T17:46:59.410Z,22.10
2019-04-20T17:49:31.459Z,22.10
2019-04-20T17:52:14.247Z,22.00
2019-04-20T17:54:25.211Z,21.80
2019-04-20T17:56:54.256Z,21.80
2019-04-20T17:59:24.173Z,21.80
2019-04-20T18:02:13.185Z,21.70
2019-04-20T18:04:59.096Z,21.50
2019-04-20T18:07:26.223Z,21.40
2019-04-20T18:09:49.298Z,21.30
2019-04-20T18:12:06.263Z,21.20
2019-04-20T18:14:46.324Z,21.10
2019-04-20T18:17:21.781Z,21.10
2019-04-20T18:19:56.886Z,21.00
2019-04-20T18:22:25.869Z,20.80
2019-04-20T18:25:12.170Z,20.70
2019-04-20T18:27:41.467Z,20.80
2019-04-20T18:30:10.740Z,20.70
2019-04-20T18:32:37.808Z,20.70
2019-04-20T18:35:10.332Z,20.50
2019-04-20T18:37:39.702Z,20.20
2019-04-20T18:40:12.744Z,20.00
2019-04-20T18:42:43.467Z,19.90
2019-04-20T18:45:28.049Z,19.70
2019-04-20T18:47:55.168Z,19.50
2019-04-20T18:50:20.547Z,19.40
2019-04-20T18:52:40.435Z,19.30
2019-04-20T18:55:17.389Z,19.20
2019-04-20T18:57:39.752Z,19.00
2019-04-20T19:00:18.092Z,19.00
2019-04-20T19:02:44.577Z,18.90
2019-04-20T19:05:11.500Z,18.80
2019-04-20T19:07:47.769Z,18.50
2019-04-20T19:10:19.549Z,18.50
2019-04-20T19:12:48.058Z,18.50
2019-04-20T19:15:52.907Z,18.40
2019-04-20T19:18:23.954Z,18.40
2019-04-20T19:20:41.753Z,18.30
2019-04-20T19:23:11.236Z,18.00
2019-04-20T19:25:42.360Z,18.00
2019-04-20T19:28:10.641Z,17.90
2019-04-20T19:30:49.562Z,17.80
2019-04-20T19:33:27.580Z,17.70
2019-04-20T19:35:50.125Z,17.70
2019-04-20T19:38:19.011Z,17.60
2019-04-20T19:40:52.786Z,17.60
2019-04-20T19:43:19.471Z,17.40
2019-04-20T19:46:16.728Z,17.30
2019-04-20T19:48:25.551Z,17.20
2019-04-20T19:51:05.826Z,17.20
2019-04-20T19:53:32.464Z,17.10
2019-04-20T19:55:58.374Z,17.00
2019-04-20T19:58:26.462Z,16.80
2019-04-20T20:00:55.532Z,16.70
2019-04-20T20:03:23.867Z,16.70
2019-04-20T20:05:55.784Z,16.50
2019-04-20T20:08:25.996Z,16.60
2019-04-20T20:10:52.878Z,16.40
2019-04-20T20:13:27.647Z,16.40
2019-04-20T20:15:57.681Z,16.10
2019-04-20T20:18:35.368Z,16.00
2019-04-20T20:21:07.291Z,15.90
2019-04-20T20:23:21.920Z,15.80
2019-04-20T20:25:51.470Z,15.80
2019-04-20T20:28:31.107Z,15.90
2019-04-20T20:31:03.459Z,15.80
2019-04-20T20:33:39.647Z,15.80
2019-04-20T20:36:03.444Z,15.70
2019-04-20T20:38:28.011Z,15.60
2019-04-20T20:41:01.559Z,15.50
2019-04-20T20:43:39.797Z,15.50
2019-04-20T20:46:08.614Z,15.30
2019-04-20T20:48:35.639Z,15.30
2019-04-20T20:51:09.180Z,15.30
2019-04-20T20:53:35.371Z,15.20
2019-04-20T20:56:01.813Z,15.20
2019-04-20T20:58:36.152Z,15.20
2019-04-20T21:00:59.690Z,15.10
2019-04-20T21:03:31.231Z,14.80
2019-04-20T21:05:53.793Z,14.70
2019-04-20T21:08:22.569Z,14.70
2019-04-20T21:10:52.695Z,14.80
2019-04-20T21:13:21.501Z,14.60
2019-04-20T21:15:54.115Z,14.40
2019-04-20T21:18:39.378Z,14.20
2019-04-20T21:21:06.470Z,14.10
2019-04-20T21:23:32.886Z,14.10
2019-04-20T21:26:12.877Z,14.10
2019-04-20T21:28:39.872Z,14.10
2019-04-20T21:31:16.291Z,14.00
2019-04-20T21:33:40.572Z,14.00
2019-04-20T21:36:09.292Z,14.00
2019-04-20T21:38:41.485Z,14.00
2019-04-20T21:41:11.376Z,14.00
2019-04-20T21:43:41.167Z,13.90
2019-04-20T21:46:10.265Z,13.70
2019-04-20T21:48:51.757Z,13.60
2019-04-20T21:51:25.746Z,13.50
2019-04-20T21:53:39.494Z,13.60
2019-04-20T21:56:08.543Z,13.50
2019-04-20T21:58:43.608Z,13.20
2019-04-20T22:01:21.606Z,13.30
2019-04-20T22:03:38.380Z,13.30
2019-04-20T22:06:08.916Z,13.30
2019-04-20T22:08:39.366Z,13.40
2019-04-20T22:11:08.267Z,13.40
2019-04-20T22:13:40.103Z,13.30
2019-04-20T22:16:10.559Z,13.10
2019-04-20T22:18:48.526Z,13.10
2019-04-20T22:21:19.684Z,12.90
2019-04-20T22:23:55.517Z,12.90
2019-04-20T22:26:18.809Z,12.70
2019-04-20T22:28:38.255Z,12.60
2019-04-20T22:31:08.240Z,12.50
2019-04-20T22:33:41.163Z,12.40
2019-04-20T22:36:10.808Z,12.30
2019-04-20T22:38:59.787Z,12.20
2019-04-20T22:41:27.875Z,12.00
2019-04-20T22:43:56.696Z,11.90
2019-04-20T22:46:31.811Z,11.90
2019-04-20T22:49:17.359Z,11.90
2019-04-20T22:51:41.352Z,12.00
2019-04-20T22:54:14.510Z,11.80
2019-04-20T22:56:42.376Z,11.90
2019-04-20T22:59:04.453Z,11.80
2019-04-20T23:01:32.857Z,11.70
2019-04-20T23:03:56.914Z,11.60
2019-04-20T23:06:35.417Z,11.60
2019-04-20T23:08:59.615Z,11.50
2019-04-20T23:11:29.146Z,11.50
2019-04-20T23:13:56.197Z,11.40
2019-04-20T23:16:27.893Z,11.30
2019-04-20T23:18:56.054Z,11.40
2019-04-20T23:21:25.759Z,11.20
2019-04-20T23:24:00.439Z,11.20
2019-04-20T23:26:31.290Z,11.10
2019-04-20T23:28:58.652Z,11.00
2019-04-20T23:31:26.774Z,10.90
2019-04-20T23:33:56.121Z,10.90
2019-04-20T23:36:29.166Z,10.90
2019-04-20T23:38:59.473Z,10.90
2019-04-20T23:41:25.985Z,10.80
2019-04-20T23:44:06.184Z,10.70
2019-04-20T23:46:47.200Z,10.60
2019-04-20T23:49:27.170Z,10.60
2019-04-20T23:52:31.707Z,10.60
2019-04-20T23:54:38.627Z,10.50
2019-04-20T23:57:06.179Z,10.40
2019-04-20T23:59:41.124Z,10.50
